GP DI GERMANIA

MX 2017. Cairoli e Paturel si aggiudicano le qualifiche del GP di Germania

- Cairoli si aggiudica la manche di qualifica del GP di Germania 2017 davanti a Herlings e Paulin. La MX2 a Paturel
MX 2017. Cairoli e Paturel si aggiudicano le qualifiche del GP di Germania

Neppure le difficili condizioni del tracciato tedesco martoriato dall’acquazzone della sera prima hanno tenuto a freno la determinazione di Tony Cairoli che si è aggiudicato l’apertura del GP di Germania persino con un discreto margine di sicurezza.


Per due giri ha inseguito il battistrada Tim Gajser, per poi involarsi verso la bandiera a scacchi una volta che l’ufficiale HRC è finito a terra dopo aver perso il controllo della moto all’atterraggio da un salto. La botta è stata così pesante che il campione in carica è stato inizialmente trattenuto dai commissari di pista in quanto sembrava in stato confusionale, poi è ripartito ma la mancanza di lucidità lo ha costretto a rientrare definitivamente ai box. Giornata nera quindi per la Honda ufficiale, che in mattinata durante le prove aveva già perso Evgeny Bobryshev anche lui protagonista di una brutta caduta atterrando da un salto. In seguito il ricovero in ospedale è stata accertata la frattura della clavicola destra.


Alle spalle di Cairoli ha chiuso l’ostinato Jeffrey Herlings, 6° al primo passaggio e poi costantemente all’attacco fino all’ultimo giro quando ha scavalcato anche Gautier Paulin costretto ad accontentarsi della 3ª piazza con un paio di secondi di vantaggio su Jeremy Van Horebeek il quale ha fatto tutta la gara davanti al compagno di squadra Romain Febvre.


Più contesa la qualifica MX2, che ha registrato il successo di Benoit Paturel arrivato costruito a tre tornate dalla conclusione dopo aver scavalcato Pauls Jonass. L’ufficiale KTM è così finito al posto d’onore con in scia Jeremy Seewer, mentre la 4ª posizione è andata all’ottimo Michele Cervellin rinvenuto dall’8° posto. 9° invece Samuele Bernardini che l’ha spuntata su Thomas Kjer Olsen passato al comando a metà gara ma poi autore di un errore che ha pagato caro.


13° invece Ivo Monticelli, mentre il debutto in sella alla Kawasaki del leader dell’Europeo 250 Morgan Lesiardo si è concluso in 22ª posizione in attesa di prendere confidenza con il ritmo superiore della MX2.

 

CLASSIFICHE

MXGP - Qualifying Race - Classification
Pos Nr Rider Nat. Fed. Bike Time laps Diff. First Diff. Prev. Bestlaptime in lap Speed
1 222 Cairoli, Antonio ITA FMI KTM 25:13.607 13 0:00.000 0:00.000 1:50.746 3 50
2 84 Herlings, Jeffrey NED KNMV KTM 25:16.718 13 0:03.111 0:03.111 1:52.279 8 49.3
3 21 Paulin, Gautier FRA MCM Husqvarna 25:18.791 13 0:05.184 0:02.073 1:51.993 3 49.5
4 89 Van Horebeek, Jeremy BEL FMB Yamaha 25:21.568 13 0:07.961 0:02.777 1:51.572 3 49.6
5 461 Febvre, Romain FRA FFM Yamaha 25:29.057 13 0:15.450 0:07.489 1:51.676 3 49.6
6 25 Desalle, Clement BEL FMB Kawasaki 25:43.170 13 0:29.563 0:14.113 1:53.379 6 48.8
7 259 Coldenhoff, Glenn NED KNMV KTM 25:45.256 13 0:31.649 0:02.086 1:53.710 5 48.7
8 911 Tixier, Jordi FRA FFM Kawasaki 25:46.948 13 0:33.341 0:01.692 1:53.470 5 48.8
9 27 Jasikonis, Arminas LTU LMSF Suzuki 25:47.359 13 0:33.752 0:00.411 1:53.089 5 49
10 4 Tonus, Arnaud SUI FMS Yamaha 25:51.310 13 0:37.703 0:03.951 1:53.355 7 48.9
11 12 Nagl, Maximilian GER DMSB Husqvarna 25:54.516 13 0:40.909 0:03.206 1:53.713 5 48.7
12 7 Leok, Tanel EST EMF Husqvarna 26:11.035 13 0:57.428 0:16.519 1:54.578 4 48.3
13 71 Graulus, Damon BEL FMB Honda 26:19.158 13 1:05.551 0:08.123 1:54.989 3 48.2
14 99 Anstie, Max GBR ACU Husqvarna 26:25.260 13 1:11.653 0:06.102 1:55.760 4 47.8
15 149 Ullrich, Dennis GER DMSB KTM 26:28.853 13 1:15.246 0:03.593 1:55.857 4 47.8
16 92 Guillod, Valentin SUI FMS Honda 26:31.853 13 1:18.246 0:03.000 1:55.661 11 47.9
17 17 Butron, Jose ESP RFME KTM 26:33.011 13 1:19.404 0:01.158 1:55.704 4 47.9
18 77 Lupino, Alessandro ITA FMI Honda 26:52.844 13 1:39.237 0:19.833 1:56.741 4 47.4
19 251 Getteman, Jens BEL DMSB Kawasaki 26:56.289 13 1:42.682 0:03.445 1:57.191 5 47.3
20 999 Goncalves, Rui POR FMP Husqvarna 26:59.969 13 1:46.362 0:03.680 1:58.034 2 46.9

 

MX2 - Qualifying Race - Classification
Pos Nr Rider Nat. Fed. Bike Time laps Diff. First Diff. Prev. Bestlaptime in lap Speed
1 6 Paturel, Benoit FRA FFM Yamaha 25:40.813 13 0:00.000 0:00.000 1:53.383 4 48.8
2 41 Jonass, Pauls LAT LAMSF KTM 25:46.866 13 0:06.053 0:06.053 1:53.530 3 48.8
3 91 Seewer, Jeremy SUI FMS Suzuki 25:47.267 13 0:06.454 0:00.401 1:52.508 3 49.2
4 747 Cervellin, Michele ITA FMI Honda 25:53.410 13 0:12.597 0:06.143 1:53.517 5 48.8
5 64 Covington, Thomas USA MUL Husqvarna 25:55.196 13 0:14.383 0:01.786 1:52.895 4 49.1
6 96 Lawrence, Hunter AUS MA Suzuki 25:56.026 13 0:15.213 0:00.830 1:53.556 13 48.8
7 189 Bogers, Brian NED KNMV KTM 25:56.789 13 0:15.976 0:00.763 1:54.012 5 48.6
8 29 Jacobi, Henry GER DMSB Husqvarna 26:02.911 13 0:22.098 0:06.122 1:54.763 7 48.3
9 321 Bernardini, Samuele ITA FMI TM 26:05.243 13 0:24.430 0:02.332 1:54.320 7 48.4
10 19 Olsen, Thomas Kjer DEN DMU Husqvarna 26:06.793 13 0:25.980 0:01.550 1:52.749 7 49.1
11 61 Prado Garcia, Jorge ESP RFME KTM 26:15.329 13 0:34.516 0:08.536 1:53.457 4 48.8
12 161 Östlund, Alvin SWE SVEMO Yamaha 26:16.215 13 0:35.402 0:00.886 1:54.719 6 48.3
13 128 Monticelli, Ivo ITA FMI KTM 26:16.818 13 0:36.005 0:00.603 1:53.819 5 48.7
14 118 Rubini, Stephen FRA FFM Kawasaki 26:23.473 13 0:42.660 0:06.655 1:54.225 8 48.5
15 107 van Berkel, Lars NED KNMV KTM 26:31.216 13 0:50.403 0:07.743 1:56.060 6 47.7
16 33 Lieber, Julien BEL FMB KTM 26:32.220 13 0:51.407 0:01.004 1:53.582 6 48.8
17 81 Hsu, Brian GER MAMS Husqvarna 26:33.136 13 0:52.323 0:00.916 1:55.417 5 48
18 951 Furlotti, Simone ITA FMI Yamaha 26:38.179 13 0:57.366 0:05.043 1:56.174 4 47.7
19 57 Sanayei, Darian USA AMA Kawasaki 26:39.725 13 0:58.912 0:01.546 1:55.833 8 47.8
20 88 van der Vlist, Freek NED KNMV KTM 26:40.712 13 0:59.899 0:00.987 1:55.285 5 48

 

  • walter.sciutto, Nizza Monferrato (AT)

    Gajser comincia a soffrire la pressione di Cairoli: due volte che Tony gli è alle calcagna e due volte che va giù pesante.
  • luca.mestrini, Gravellona Toce (VB)

    Herlings in arrivooooo!!!
Inserisci il tuo commento